sensor_id;sensor_type;location;lat;lon;timestamp;P1;durP1;ratioP1;P2;durP2;ratioP2
13568;SDS011;6856;51.460;7.158;2024-03-23T00:54:33;6.80;;;2.40;;
13568;SDS011;6856;51.460;7.158;2024-03-23T00:57:06;7.63;;;2.47;;
13568;SDS011;6856;51.460;7.158;2024-03-23T00:59:37;8.90;;;2.77;;
13568;SDS011;6856;51.460;7.158;2024-03-23T01:02:15;6.07;;;2.50;;
13568;SDS011;6856;51.460;7.158;2024-03-23T01:04:49;7.30;;;2.97;;
13568;SDS011;6856;51.460;7.158;2024-03-23T01:07:22;5.27;;;2.40;;
13568;SDS011;6856;51.460;7.158;2024-03-23T01:09:55;4.63;;;2.23;;
13568;SDS011;6856;51.460;7.158;2024-03-23T01:12:28;5.10;;;2.37;;
13568;SDS011;6856;51.460;7.158;2024-03-23T01:15:01;7.13;;;2.10;;
13568;SDS011;6856;51.460;7.158;2024-03-23T01:17:34;8.57;;;2.80;;
13568;SDS011;6856;51.460;7.158;2024-03-23T01:20:08;6.50;;;2.37;;
13568;SDS011;6856;51.460;7.158;2024-03-23T01:22:46;5.37;;;2.60;;
13568;SDS011;6856;51.460;7.158;2024-03-23T01:25:20;4.63;;;2.47;;
13568;SDS011;6856;51.460;7.158;2024-03-23T01:27:53;4.97;;;2.63;;
13568;SDS011;6856;51.460;7.158;2024-03-23T01:30:24;6.53;;;2.93;;
13568;SDS011;6856;51.460;7.158;2024-03-23T01:32:57;5.07;;;1.80;;
13568;SDS011;6856;51.460;7.158;2024-03-23T01:35:29;4.40;;;1.70;;
13568;SDS011;6856;51.460;7.158;2024-03-23T01:38:02;4.93;;;1.97;;
13568;SDS011;6856;51.460;7.158;2024-03-23T01:40:37;4.60;;;1.93;;
13568;SDS011;6856;51.460;7.158;2024-03-23T01:43:09;3.07;;;1.50;;
13568;SDS011;6856;51.460;7.158;2024-03-23T01:45:41;4.67;;;2.00;;
13568;SDS011;6856;51.460;7.158;2024-03-23T01:48:14;4.03;;;2.23;;
13568;SDS011;6856;51.460;7.158;2024-03-23T01:50:47;3.50;;;1.50;;
13568;SDS011;6856;51.460;7.158;2024-03-23T01:53:20;5.83;;;1.70;;
13568;SDS011;6856;51.460;7.158;2024-03-23T01:55:55;4.40;;;2.03;;
13568;SDS011;6856;51.460;7.158;2024-03-23T01:58:28;4.53;;;1.87;;
13568;SDS011;6856;51.460;7.158;2024-03-23T02:01:01;3.73;;;1.63;;
13568;SDS011;6856;51.460;7.158;2024-03-23T02:03:34;7.80;;;2.47;;
13568;SDS011;6856;51.460;7.158;2024-03-23T02:06:06;4.00;;;1.77;;
13568;SDS011;6856;51.460;7.158;2024-03-23T02:08:40;4.80;;;1.93;;
13568;SDS011;6856;51.460;7.158;2024-03-23T02:11:16;5.70;;;1.80;;
13568;SDS011;6856;51.460;7.158;2024-03-23T02:13:49;4.03;;;1.40;;
13568;SDS011;6856;51.460;7.158;2024-03-23T02:16:21;4.30;;;1.73;;
13568;SDS011;6856;51.460;7.158;2024-03-23T02:18:54;4.37;;;1.70;;
13568;SDS011;6856;51.460;7.158;2024-03-23T02:21:27;3.90;;;1.40;;
13568;SDS011;6856;51.460;7.158;2024-03-23T02:24:06;3.03;;;1.50;;
13568;SDS011;6856;51.460;7.158;2024-03-23T02:26:38;3.80;;;1.50;;
13568;SDS011;6856;51.460;7.158;2024-03-23T02:29:11;3.40;;;1.30;;
13568;SDS011;6856;51.460;7.158;2024-03-23T02:31:42;3.10;;;1.37;;
13568;SDS011;6856;51.460;7.158;2024-03-23T02:34:16;4.93;;;1.90;;
13568;SDS011;6856;51.460;7.158;2024-03-23T02:36:48;4.57;;;1.60;;
13568;SDS011;6856;51.460;7.158;2024-03-23T02:39:23;4.20;;;1.67;;
13568;SDS011;6856;51.460;7.158;2024-03-23T02:41:55;2.17;;;1.30;;
13568;SDS011;6856;51.460;7.158;2024-03-23T02:44:28;4.60;;;1.80;;
13568;SDS011;6856;51.460;7.158;2024-03-23T02:47:00;5.97;;;1.70;;
13568;SDS011;6856;51.460;7.158;2024-03-23T02:49:34;3.67;;;1.47;;
13568;SDS011;6856;51.460;7.158;2024-03-23T02:52:06;3.10;;;1.70;;
13568;SDS011;6856;51.460;7.158;2024-03-23T02:54:40;4.57;;;1.73;;
13568;SDS011;6856;51.460;7.158;2024-03-23T02:57:15;2.90;;;1.20;;
13568;SDS011;6856;51.460;7.158;2024-03-23T02:59:47;3.57;;;1.70;;
13568;SDS011;6856;51.460;7.158;2024-03-23T03:02:20;3.37;;;1.60;;
13568;SDS011;6856;51.460;7.158;2024-03-23T03:04:52;3.47;;;1.67;;
13568;SDS011;6856;51.460;7.158;2024-03-23T03:07:25;4.60;;;1.80;;
13568;SDS011;6856;51.460;7.158;2024-03-23T03:10:00;2.97;;;1.43;;
13568;SDS011;6856;51.460;7.158;2024-03-23T03:12:34;5.90;;;1.70;;
13568;SDS011;6856;51.460;7.158;2024-03-23T03:15:06;3.67;;;1.30;;
13568;SDS011;6856;51.460;7.158;2024-03-23T03:17:39;3.27;;;1.53;;
13568;SDS011;6856;51.460;7.158;2024-03-23T03:20:12;3.93;;;1.80;;
13568;SDS011;6856;51.460;7.158;2024-03-23T03:22:46;3.40;;;1.90;;
13568;SDS011;6856;51.460;7.158;2024-03-23T03:25:20;4.77;;;1.90;;
13568;SDS011;6856;51.460;7.158;2024-03-23T03:27:53;3.47;;;1.53;;
13568;SDS011;6856;51.460;7.158;2024-03-23T03:30:25;5.20;;;1.63;;
13568;SDS011;6856;51.460;7.158;2024-03-23T03:32:58;3.00;;;1.50;;
13568;SDS011;6856;51.460;7.158;2024-03-23T03:35:29;2.87;;;1.10;;
13568;SDS011;6856;51.460;7.158;2024-03-23T03:38:04;3.80;;;1.50;;
13568;SDS011;6856;51.460;7.158;2024-03-23T03:40:38;3.37;;;1.30;;
13568;SDS011;6856;51.460;7.158;2024-03-23T03:43:11;2.93;;;1.40;;
13568;SDS011;6856;51.460;7.158;2024-03-23T03:45:51;2.87;;;1.17;;
13568;SDS011;6856;51.460;7.158;2024-03-23T03:48:24;5.07;;;1.40;;
13568;SDS011;6856;51.460;7.158;2024-03-23T03:50:56;4.00;;;1.40;;
13568;SDS011;6856;51.460;7.158;2024-03-23T03:53:30;2.97;;;1.30;;
13568;SDS011;6856;51.460;7.158;2024-03-23T03:56:04;2.23;;;1.40;;
13568;SDS011;6856;51.460;7.158;2024-03-23T03:58:38;3.27;;;1.43;;
13568;SDS011;6856;51.460;7.158;2024-03-23T04:01:11;2.97;;;1.30;;
13568;SDS011;6856;51.460;7.158;2024-03-23T04:03:45;2.30;;;1.20;;
13568;SDS011;6856;51.460;7.158;2024-03-23T04:06:20;4.43;;;1.63;;
13568;SDS011;6856;51.460;7.158;2024-03-23T04:08:53;2.90;;;1.27;;
13568;SDS011;6856;51.460;7.158;2024-03-23T04:11:27;3.77;;;1.33;;
13568;SDS011;6856;51.460;7.158;2024-03-23T04:13:59;2.60;;;1.53;;
13568;SDS011;6856;51.460;7.158;2024-03-23T04:16:33;3.40;;;1.40;;
13568;SDS011;6856;51.460;7.158;2024-03-23T04:19:07;4.47;;;1.50;;
13568;SDS011;6856;51.460;7.158;2024-03-23T04:21:40;3.73;;;1.87;;
13568;SDS011;6856;51.460;7.158;2024-03-23T04:24:13;3.57;;;1.70;;
13568;SDS011;6856;51.460;7.158;2024-03-23T04:26:47;3.77;;;1.50;;
13568;SDS011;6856;51.460;7.158;2024-03-23T04:29:20;5.23;;;2.10;;
13568;SDS011;6856;51.460;7.158;2024-03-23T04:31:52;5.50;;;1.80;;
13568;SDS011;6856;51.460;7.158;2024-03-23T04:34:27;5.57;;;2.23;;
13568;SDS011;6856;51.460;7.158;2024-03-23T04:37:00;4.27;;;1.93;;
13568;SDS011;6856;51.460;7.158;2024-03-23T04:39:35;4.00;;;2.30;;
13568;SDS011;6856;51.460;7.158;2024-03-23T04:42:09;4.53;;;2.10;;
13568;SDS011;6856;51.460;7.158;2024-03-23T04:44:42;3.80;;;2.37;;
13568;SDS011;6856;51.460;7.158;2024-03-23T04:47:15;4.10;;;2.17;;
13568;SDS011;6856;51.460;7.158;2024-03-23T04:49:49;5.87;;;2.30;;
13568;SDS011;6856;51.460;7.158;2024-03-23T04:52:22;7.20;;;2.60;;
13568;SDS011;6856;51.460;7.158;2024-03-23T04:54:56;5.63;;;2.50;;
13568;SDS011;6856;51.460;7.158;2024-03-23T04:57:30;6.50;;;2.00;;
13568;SDS011;6856;51.460;7.158;2024-03-23T05:00:02;4.43;;;2.10;;
13568;SDS011;6856;51.460;7.158;2024-03-23T05:02:48;4.47;;;2.20;;
13568;SDS011;6856;51.460;7.158;2024-03-23T05:05:20;3.80;;;2.00;;
13568;SDS011;6856;51.460;7.158;2024-03-23T05:07:53;3.60;;;1.70;;
13568;SDS011;6856;51.460;7.158;2024-03-23T05:10:25;4.13;;;1.70;;
13568;SDS011;6856;51.460;7.158;2024-03-23T05:13:23;6.27;;;2.10;;
13568;SDS011;6856;51.460;7.158;2024-03-23T05:15:56;4.83;;;2.17;;
13568;SDS011;6856;51.460;7.158;2024-03-23T05:18:28;5.03;;;1.90;;
13568;SDS011;6856;51.460;7.158;2024-03-23T05:21:01;7.07;;;2.57;;
13568;SDS011;6856;51.460;7.158;2024-03-23T05:23:33;5.57;;;3.00;;
13568;SDS011;6856;51.460;7.158;2024-03-23T05:26:08;5.57;;;3.00;;
13568;SDS011;6856;51.460;7.158;2024-03-23T05:28:43;6.53;;;3.23;;
13568;SDS011;6856;51.460;7.158;2024-03-23T05:31:22;5.97;;;3.37;;
13568;SDS011;6856;51.460;7.158;2024-03-23T05:33:55;7.90;;;4.43;;
13568;SDS011;6856;51.460;7.158;2024-03-23T05:36:28;6.60;;;4.40;;
13568;SDS011;6856;51.460;7.158;2024-03-23T05:45:07;9.20;;;4.77;;
13568;SDS011;6856;51.460;7.158;2024-03-23T05:47:43;5.17;;;4.37;;
13568;SDS011;6856;51.460;7.158;2024-03-23T05:50:16;6.83;;;4.53;;
13568;SDS011;6856;51.460;7.158;2024-03-23T05:52:49;7.10;;;3.90;;
13568;SDS011;6856;51.460;7.158;2024-03-23T05:55:21;7.10;;;4.30;;
13568;SDS011;6856;51.460;7.158;2024-03-23T05:57:54;7.13;;;3.80;;
13568;SDS011;6856;51.460;7.158;2024-03-23T06:00:32;5.67;;;4.03;;
13568;SDS011;6856;51.460;7.158;2024-03-23T06:03:06;5.93;;;3.33;;
13568;SDS011;6856;51.460;7.158;2024-03-23T06:05:41;8.83;;;3.97;;
13568;SDS011;6856;51.460;7.158;2024-03-23T06:08:15;5.03;;;3.30;;
13568;SDS011;6856;51.460;7.158;2024-03-23T06:10:50;5.80;;;3.47;;
13568;SDS011;6856;51.460;7.158;2024-03-23T06:13:22;5.77;;;3.83;;
13568;SDS011;6856;51.460;7.158;2024-03-23T06:16:02;6.63;;;4.00;;
13568;SDS011;6856;51.460;7.158;2024-03-23T06:18:41;6.30;;;3.57;;
13568;SDS011;6856;51.460;7.158;2024-03-23T06:21:15;6.47;;;3.30;;
13568;SDS011;6856;51.460;7.158;2024-03-23T06:23:50;6.13;;;3.33;;
13568;SDS011;6856;51.460;7.158;2024-03-23T06:26:24;6.23;;;3.63;;
13568;SDS011;6856;51.460;7.158;2024-03-23T06:28:58;5.87;;;3.67;;
13568;SDS011;6856;51.460;7.158;2024-03-23T06:31:33;8.27;;;4.87;;
13568;SDS011;6856;51.460;7.158;2024-03-23T06:34:06;7.53;;;4.80;;
13568;SDS011;6856;51.460;7.158;2024-03-23T06:36:38;7.43;;;4.70;;
13568;SDS011;6856;51.460;7.158;2024-03-23T06:39:10;7.07;;;5.03;;
13568;SDS011;6856;51.460;7.158;2024-03-23T06:41:51;8.80;;;5.20;;
13568;SDS011;6856;51.460;7.158;2024-03-23T06:44:25;6.43;;;5.00;;
13568;SDS011;6856;51.460;7.158;2024-03-23T06:46:59;7.07;;;5.23;;
13568;SDS011;6856;51.460;7.158;2024-03-23T06:49:31;7.77;;;6.20;;
13568;SDS011;6856;51.460;7.158;2024-03-23T06:52:03;8.67;;;5.90;;
13568;SDS011;6856;51.460;7.158;2024-03-23T06:54:35;9.37;;;5.93;;
13568;SDS011;6856;51.460;7.158;2024-03-23T06:57:11;9.17;;;6.50;;
13568;SDS011;6856;51.460;7.158;2024-03-23T06:59:43;9.27;;;6.63;;
13568;SDS011;6856;51.460;7.158;2024-03-23T07:02:19;9.37;;;6.67;;
13568;SDS011;6856;51.460;7.158;2024-03-23T07:04:51;13.50;;;7.40;;
13568;SDS011;6856;51.460;7.158;2024-03-23T07:07:24;9.53;;;7.00;;
13568;SDS011;6856;51.460;7.158;2024-03-23T07:09:57;8.60;;;6.93;;
13568;SDS011;6856;51.460;7.158;2024-03-23T07:12:30;10.07;;;7.13;;
13568;SDS011;6856;51.460;7.158;2024-03-23T07:15:02;8.83;;;6.80;;
13568;SDS011;6856;51.460;7.158;2024-03-23T07:17:41;9.40;;;7.43;;
13568;SDS011;6856;51.460;7.158;2024-03-23T07:20:13;10.63;;;7.10;;
13568;SDS011;6856;51.460;7.158;2024-03-23T07:22:46;10.00;;;7.43;;
13568;SDS011;6856;51.460;7.158;2024-03-23T07:25:18;9.63;;;7.37;;
13568;SDS011;6856;51.460;7.158;2024-03-23T07:27:54;11.37;;;7.83;;
13568;SDS011;6856;51.460;7.158;2024-03-23T07:30:25;8.60;;;7.63;;
13568;SDS011;6856;51.460;7.158;2024-03-23T07:33:00;10.80;;;7.93;;
13568;SDS011;6856;51.460;7.158;2024-03-23T07:35:32;11.23;;;8.00;;
13568;SDS011;6856;51.460;7.158;2024-03-23T07:38:05;12.27;;;8.33;;
13568;SDS011;6856;51.460;7.158;2024-03-23T07:40:37;11.50;;;7.53;;
13568;SDS011;6856;51.460;7.158;2024-03-23T07:43:10;11.53;;;7.63;;
13568;SDS011;6856;51.460;7.158;2024-03-23T07:45:41;11.03;;;7.63;;
13568;SDS011;6856;51.460;7.158;2024-03-23T07:48:24;10.37;;;7.03;;
13568;SDS011;6856;51.460;7.158;2024-03-23T07:50:57;8.83;;;6.63;;
13568;SDS011;6856;51.460;7.158;2024-03-23T07:53:32;9.57;;;6.30;;
13568;SDS011;6856;51.460;7.158;2024-03-23T07:56:07;7.43;;;5.70;;
13568;SDS011;6856;51.460;7.158;2024-03-23T07:58:41;9.43;;;5.83;;
13568;SDS011;6856;51.460;7.158;2024-03-23T08:01:14;9.77;;;5.63;;
13568;SDS011;6856;51.460;7.158;2024-03-23T08:03:50;8.30;;;5.23;;
13568;SDS011;6856;51.460;7.158;2024-03-23T08:06:23;12.10;;;5.80;;
13568;SDS011;6856;51.460;7.158;2024-03-23T08:08:56;8.03;;;5.30;;
13568;SDS011;6856;51.460;7.158;2024-03-23T08:11:34;7.23;;;4.53;;
13568;SDS011;6856;51.460;7.158;2024-03-23T08:14:08;7.37;;;5.27;;
13568;SDS011;6856;51.460;7.158;2024-03-23T08:16:40;10.83;;;5.13;;
13568;SDS011;6856;51.460;7.158;2024-03-23T08:19:22;7.60;;;5.20;;
13568;SDS011;6856;51.460;7.158;2024-03-23T08:21:55;7.90;;;5.00;;
13568;SDS011;6856;51.460;7.158;2024-03-23T08:24:29;9.43;;;4.80;;
13568;SDS011;6856;51.460;7.158;2024-03-23T08:27:02;7.67;;;4.37;;
13568;SDS011;6856;51.460;7.158;2024-03-23T08:29:35;8.37;;;4.53;;
13568;SDS011;6856;51.460;7.158;2024-03-23T08:32:07;9.27;;;4.57;;
13568;SDS011;6856;51.460;7.158;2024-03-23T08:34:41;7.70;;;4.40;;
13568;SDS011;6856;51.460;7.158;2024-03-23T08:37:13;7.30;;;4.40;;
13568;SDS011;6856;51.460;7.158;2024-03-23T08:39:46;8.23;;;4.10;;
13568;SDS011;6856;51.460;7.158;2024-03-23T08:42:21;7.53;;;3.67;;
13568;SDS011;6856;51.460;7.158;2024-03-23T08:44:55;7.03;;;4.10;;
13568;SDS011;6856;51.460;7.158;2024-03-23T08:47:27;7.87;;;3.70;;
13568;SDS011;6856;51.460;7.158;2024-03-23T08:50:01;6.67;;;3.57;;
13568;SDS011;6856;51.460;7.158;2024-03-23T08:52:34;6.77;;;3.67;;
13568;SDS011;6856;51.460;7.158;2024-03-23T08:55:09;6.77;;;3.43;;
13568;SDS011;6856;51.460;7.158;2024-03-23T08:57:40;6.53;;;3.80;;
13568;SDS011;6856;51.460;7.158;2024-03-23T09:00:14;8.07;;;3.30;;
13568;SDS011;6856;51.460;7.158;2024-03-23T09:02:47;6.83;;;2.97;;
13568;SDS011;6856;51.460;7.158;2024-03-23T09:05:22;4.50;;;2.43;;
13568;SDS011;6856;51.460;7.158;2024-03-23T09:07:54;5.53;;;2.83;;
13568;SDS011;6856;51.460;7.158;2024-03-23T09:10:27;6.43;;;2.77;;
13568;SDS011;6856;51.460;7.158;2024-03-23T09:13:00;5.53;;;2.70;;
13568;SDS011;6856;51.460;7.158;2024-03-23T09:15:33;5.00;;;2.93;;
13568;SDS011;6856;51.460;7.158;2024-03-23T09:18:07;4.90;;;2.90;;
13568;SDS011;6856;51.460;7.158;2024-03-23T09:20:42;6.30;;;3.00;;
13568;SDS011;6856;51.460;7.158;2024-03-23T09:23:14;3.47;;;2.20;;
13568;SDS011;6856;51.460;7.158;2024-03-23T09:25:50;4.03;;;2.00;;
13568;SDS011;6856;51.460;7.158;2024-03-23T09:28:22;4.33;;;2.00;;
13568;SDS011;6856;51.460;7.158;2024-03-23T09:31:02;5.80;;;2.00;;
13568;SDS011;6856;51.460;7.158;2024-03-23T09:33:35;2.27;;;1.60;;
13568;SDS011;6856;51.460;7.158;2024-03-23T09:36:09;6.03;;;2.10;;
13568;SDS011;6856;51.460;7.158;2024-03-23T09:38:41;4.63;;;2.10;;
13568;SDS011;6856;51.460;7.158;2024-03-23T09:41:15;5.13;;;2.20;;
13568;SDS011;6856;51.460;7.158;2024-03-23T09:43:51;4.07;;;1.80;;
13568;SDS011;6856;51.460;7.158;2024-03-23T09:46:25;4.40;;;2.73;;
13568;SDS011;6856;51.460;7.158;2024-03-23T09:49:00;5.13;;;2.57;;
13568;SDS011;6856;51.460;7.158;2024-03-23T09:51:39;4.87;;;2.67;;
13568;SDS011;6856;51.460;7.158;2024-03-23T09:54:11;5.07;;;2.80;;
13568;SDS011;6856;51.460;7.158;2024-03-23T09:56:44;5.60;;;2.83;;
13568;SDS011;6856;51.460;7.158;2024-03-23T09:59:16;5.77;;;3.00;;
13568;SDS011;6856;51.460;7.158;2024-03-23T10:01:50;3.57;;;2.70;;
13568;SDS011;6856;51.460;7.158;2024-03-23T10:04:35;5.23;;;2.90;;
13568;SDS011;6856;51.460;7.158;2024-03-23T10:07:12;4.57;;;2.60;;
13568;SDS011;6856;51.460;7.158;2024-03-23T10:09:45;4.50;;;2.60;;
13568;SDS011;6856;51.460;7.158;2024-03-23T10:12:22;5.60;;;2.40;;
13568;SDS011;6856;51.460;7.158;2024-03-23T10:14:55;5.20;;;2.40;;
13568;SDS011;6856;51.460;7.158;2024-03-23T10:17:29;5.37;;;1.90;;
13568;SDS011;6856;51.460;7.158;2024-03-23T10:20:01;5.70;;;2.50;;
13568;SDS011;6856;51.460;7.158;2024-03-23T10:22:38;3.17;;;2.00;;
13568;SDS011;6856;51.460;7.158;2024-03-23T10:25:10;4.43;;;2.00;;
13568;SDS011;6856;51.460;7.158;2024-03-23T10:27:44;4.27;;;1.77;;
13568;SDS011;6856;51.460;7.158;2024-03-23T10:30:30;5.17;;;2.10;;
13568;SDS011;6856;51.460;7.158;2024-03-23T10:33:07;6.93;;;2.20;;
13568;SDS011;6856;51.460;7.158;2024-03-23T10:35:40;3.33;;;1.77;;
13568;SDS011;6856;51.460;7.158;2024-03-23T10:38:16;4.10;;;1.80;;
13568;SDS011;6856;51.460;7.158;2024-03-23T10:40:47;8.43;;;2.00;;
13568;SDS011;6856;51.460;7.158;2024-03-23T10:43:21;5.63;;;2.17;;
13568;SDS011;6856;51.460;7.158;2024-03-23T10:45:53;3.47;;;1.40;;
13568;SDS011;6856;51.460;7.158;2024-03-23T10:48:26;2.23;;;1.43;;
13568;SDS011;6856;51.460;7.158;2024-03-23T10:50:57;3.17;;;1.40;;
13568;SDS011;6856;51.460;7.158;2024-03-23T10:53:32;4.73;;;1.77;;
13568;SDS011;6856;51.460;7.158;2024-03-23T10:56:06;4.47;;;1.50;;
13568;SDS011;6856;51.460;7.158;2024-03-23T10:58:40;5.00;;;1.57;;
13568;SDS011;6856;51.460;7.158;2024-03-23T11:01:17;1.60;;;0.87;;
13568;SDS011;6856;51.460;7.158;2024-03-23T11:03:50;4.30;;;0.97;;
13568;SDS011;6856;51.460;7.158;2024-03-23T11:06:36;1.03;;;0.60;;
13568;SDS011;6856;51.460;7.158;2024-03-23T11:12:25;2.23;;;0.77;;
13568;SDS011;6856;51.460;7.158;2024-03-23T11:15:04;1.20;;;0.70;;
13568;SDS011;6856;51.460;7.158;2024-03-23T11:17:42;0.80;;;0.60;;
13568;SDS011;6856;51.460;7.158;2024-03-23T11:20:35;0.90;;;0.80;;
13568;SDS011;6856;51.460;7.158;2024-03-23T11:23:07;0.93;;;0.70;;
13568;SDS011;6856;51.460;7.158;2024-03-23T11:26:00;1.70;;;0.70;;
13568;SDS011;6856;51.460;7.158;2024-03-23T11:28:33;1.67;;;0.80;;
13568;SDS011;6856;51.460;7.158;2024-03-23T11:31:09;1.60;;;1.00;;
13568;SDS011;6856;51.460;7.158;2024-03-23T11:33:41;0.70;;;0.70;;
13568;SDS011;6856;51.460;7.158;2024-03-23T11:36:18;2.27;;;1.00;;
13568;SDS011;6856;51.460;7.158;2024-03-23T11:38:52;2.73;;;1.20;;
13568;SDS011;6856;51.460;7.158;2024-03-23T11:41:26;1.43;;;1.10;;
13568;SDS011;6856;51.460;7.158;2024-03-23T11:43:59;2.60;;;1.10;;
13568;SDS011;6856;51.460;7.158;2024-03-23T11:46:48;1.90;;;1.07;;
13568;SDS011;6856;51.460;7.158;2024-03-23T11:49:21;1.23;;;1.10;;
13568;SDS011;6856;51.460;7.158;2024-03-23T11:51:56;2.33;;;1.37;;
13568;SDS011;6856;51.460;7.158;2024-03-23T11:54:28;3.60;;;1.70;;
13568;SDS011;6856;51.460;7.158;2024-03-23T11:57:03;4.30;;;2.13;;
13568;SDS011;6856;51.460;7.158;2024-03-23T11:59:39;3.77;;;1.90;;
13568;SDS011;6856;51.460;7.158;2024-03-23T12:02:13;2.87;;;1.60;;
13568;SDS011;6856;51.460;7.158;2024-03-23T12:04:49;3.43;;;1.70;;
13568;SDS011;6856;51.460;7.158;2024-03-23T12:07:23;4.40;;;1.80;;
13568;SDS011;6856;51.460;7.158;2024-03-23T12:10:02;2.33;;;1.47;;
13568;SDS011;6856;51.460;7.158;2024-03-23T12:12:38;3.07;;;1.50;;
13568;SDS011;6856;51.460;7.158;2024-03-23T12:15:10;3.10;;;1.50;;
13568;SDS011;6856;51.460;7.158;2024-03-23T12:17:44;2.67;;;1.20;;
13568;SDS011;6856;51.460;7.158;2024-03-23T12:20:15;2.10;;;1.10;;
13568;SDS011;6856;51.460;7.158;2024-03-23T12:22:48;2.90;;;1.10;;
13568;SDS011;6856;51.460;7.158;2024-03-23T12:25:20;2.87;;;1.37;;
13568;SDS011;6856;51.460;7.158;2024-03-23T12:27:54;2.50;;;1.20;;
13568;SDS011;6856;51.460;7.158;2024-03-23T12:30:30;2.83;;;1.20;;
13568;SDS011;6856;51.460;7.158;2024-03-23T12:33:09;2.53;;;1.20;;
13568;SDS011;6856;51.460;7.158;2024-03-23T12:35:42;2.27;;;1.00;;
13568;SDS011;6856;51.460;7.158;2024-03-23T12:38:15;1.70;;;1.00;;
13568;SDS011;6856;51.460;7.158;2024-03-23T12:40:47;2.00;;;1.20;;
13568;SDS011;6856;51.460;7.158;2024-03-23T12:43:24;2.53;;;1.00;;
13568;SDS011;6856;51.460;7.158;2024-03-23T12:45:56;1.83;;;0.87;;
13568;SDS011;6856;51.460;7.158;2024-03-23T12:48:29;3.73;;;1.20;;
13568;SDS011;6856;51.460;7.158;2024-03-23T12:51:02;3.30;;;1.10;;
13568;SDS011;6856;51.460;7.158;2024-03-23T12:53:34;1.77;;;1.17;;
13568;SDS011;6856;51.460;7.158;2024-03-23T12:56:07;2.30;;;1.10;;
13568;SDS011;6856;51.460;7.158;2024-03-23T12:58:44;3.20;;;1.43;;
13568;SDS011;6856;51.460;7.158;2024-03-23T13:01:19;2.13;;;1.10;;
13568;SDS011;6856;51.460;7.158;2024-03-23T13:03:51;1.17;;;1.00;;
13568;SDS011;6856;51.460;7.158;2024-03-23T13:06:24;1.93;;;1.10;;
13568;SDS011;6856;51.460;7.158;2024-03-23T13:08:57;2.27;;;1.30;;
13568;SDS011;6856;51.460;7.158;2024-03-23T13:11:31;2.60;;;1.30;;
13568;SDS011;6856;51.460;7.158;2024-03-23T13:14:04;2.07;;;1.43;;
13568;SDS011;6856;51.460;7.158;2024-03-23T13:16:37;1.67;;;1.00;;
13568;SDS011;6856;51.460;7.158;2024-03-23T13:19:09;2.33;;;1.33;;
13568;SDS011;6856;51.460;7.158;2024-03-23T13:21:42;1.27;;;1.00;;
13568;SDS011;6856;51.460;7.158;2024-03-23T13:24:13;1.20;;;0.80;;
13568;SDS011;6856;51.460;7.158;2024-03-23T13:26:46;1.80;;;0.90;;
13568;SDS011;6856;51.460;7.158;2024-03-23T13:29:20;1.17;;;0.93;;
13568;SDS011;6856;51.460;7.158;2024-03-23T13:31:54;3.50;;;1.00;;
13568;SDS011;6856;51.460;7.158;2024-03-23T13:34:25;1.77;;;1.00;;
13568;SDS011;6856;51.460;7.158;2024-03-23T13:36:59;2.70;;;1.10;;
13568;SDS011;6856;51.460;7.158;2024-03-23T13:39:32;1.70;;;0.77;;
13568;SDS011;6856;51.460;7.158;2024-03-23T13:42:06;1.60;;;0.73;;
13568;SDS011;6856;51.460;7.158;2024-03-23T13:44:41;1.93;;;0.70;;
13568;SDS011;6856;51.460;7.158;2024-03-23T13:47:14;1.60;;;0.80;;
13568;SDS011;6856;51.460;7.158;2024-03-23T13:49:46;2.53;;;1.00;;
13568;SDS011;6856;51.460;7.158;2024-03-23T13:52:21;1.93;;;1.00;;
13568;SDS011;6856;51.460;7.158;2024-03-23T13:54:55;2.53;;;1.10;;
13568;SDS011;6856;51.460;7.158;2024-03-23T13:57:28;3.53;;;1.40;;
13568;SDS011;6856;51.460;7.158;2024-03-23T14:00:01;3.10;;;1.40;;
13568;SDS011;6856;51.460;7.158;2024-03-23T14:02:38;1.93;;;1.30;;
13568;SDS011;6856;51.460;7.158;2024-03-23T14:05:10;3.20;;;1.20;;
13568;SDS011;6856;51.460;7.158;2024-03-23T14:07:43;2.70;;;1.20;;
13568;SDS011;6856;51.460;7.158;2024-03-23T14:10:14;4.00;;;1.10;;
13568;SDS011;6856;51.460;7.158;2024-03-23T14:12:47;3.33;;;1.17;;
13568;SDS011;6856;51.460;7.158;2024-03-23T14:15:21;1.87;;;1.10;;
13568;SDS011;6856;51.460;7.158;2024-03-23T14:17:54;1.50;;;0.90;;
13568;SDS011;6856;51.460;7.158;2024-03-23T14:20:26;1.60;;;0.80;;
13568;SDS011;6856;51.460;7.158;2024-03-23T14:22:59;1.57;;;0.90;;
13568;SDS011;6856;51.460;7.158;2024-03-23T14:25:31;2.07;;;0.97;;
13568;SDS011;6856;51.460;7.158;2024-03-23T14:28:08;2.30;;;0.90;;
13568;SDS011;6856;51.460;7.158;2024-03-23T14:30:50;1.90;;;0.80;;
13568;SDS011;6856;51.460;7.158;2024-03-23T14:33:24;2.53;;;1.00;;
13568;SDS011;6856;51.460;7.158;2024-03-23T14:35:56;1.50;;;0.80;;
13568;SDS011;6856;51.460;7.158;2024-03-23T14:38:29;1.47;;;0.90;;
13568;SDS011;6856;51.460;7.158;2024-03-23T14:41:01;2.10;;;1.00;;
13568;SDS011;6856;51.460;7.158;2024-03-23T14:43:35;1.90;;;0.70;;
13568;SDS011;6856;51.460;7.158;2024-03-23T14:46:10;1.37;;;0.80;;
13568;SDS011;6856;51.460;7.158;2024-03-23T14:48:45;1.80;;;0.93;;
13568;SDS011;6856;51.460;7.158;2024-03-23T14:51:17;1.60;;;0.87;;
13568;SDS011;6856;51.460;7.158;2024-03-23T14:53:49;2.97;;;1.10;;
13568;SDS011;6856;51.460;7.158;2024-03-23T14:56:21;2.47;;;1.00;;
13568;SDS011;6856;51.460;7.158;2024-03-23T14:58:54;2.43;;;1.00;;
13568;SDS011;6856;51.460;7.158;2024-03-23T15:01:28;2.90;;;0.90;;
13568;SDS011;6856;51.460;7.158;2024-03-23T15:04:02;2.10;;;0.90;;
13568;SDS011;6856;51.460;7.158;2024-03-23T15:06:34;1.00;;;0.80;;
13568;SDS011;6856;51.460;7.158;2024-03-23T15:09:07;3.07;;;1.07;;
13568;SDS011;6856;51.460;7.158;2024-03-23T15:11:41;2.57;;;1.10;;
13568;SDS011;6856;51.460;7.158;2024-03-23T15:14:14;2.53;;;1.10;;
13568;SDS011;6856;51.460;7.158;2024-03-23T15:16:47;1.97;;;0.90;;
13568;SDS011;6856;51.460;7.158;2024-03-23T15:19:23;2.40;;;1.27;;
13568;SDS011;6856;51.460;7.158;2024-03-23T15:21:55;1.90;;;1.10;;
13568;SDS011;6856;51.460;7.158;2024-03-23T15:24:28;2.00;;;0.93;;
13568;SDS011;6856;51.460;7.158;2024-03-23T15:27:00;2.20;;;1.27;;
13568;SDS011;6856;51.460;7.158;2024-03-23T15:29:32;1.37;;;1.23;;
13568;SDS011;6856;51.460;7.158;2024-03-23T15:32:06;3.17;;;1.27;;
13568;SDS011;6856;51.460;7.158;2024-03-23T15:34:39;3.37;;;1.23;;
13568;SDS011;6856;51.460;7.158;2024-03-23T15:37:10;1.37;;;0.93;;
13568;SDS011;6856;51.460;7.158;2024-03-23T15:39:43;3.77;;;1.27;;
13568;SDS011;6856;51.460;7.158;2024-03-23T15:42:16;3.47;;;1.40;;
13568;SDS011;6856;51.460;7.158;2024-03-23T15:44:49;2.70;;;1.33;;
13568;SDS011;6856;51.460;7.158;2024-03-23T15:47:22;2.40;;;1.00;;
13568;SDS011;6856;51.460;7.158;2024-03-23T15:49:55;4.30;;;1.30;;
13568;SDS011;6856;51.460;7.158;2024-03-23T15:52:27;2.50;;;1.10;;
13568;SDS011;6856;51.460;7.158;2024-03-23T15:55:00;2.27;;;1.20;;
13568;SDS011;6856;51.460;7.158;2024-03-23T15:57:32;4.37;;;1.37;;
13568;SDS011;6856;51.460;7.158;2024-03-23T16:00:07;2.00;;;1.07;;
13568;SDS011;6856;51.460;7.158;2024-03-23T16:02:42;5.37;;;1.50;;
13568;SDS011;6856;51.460;7.158;2024-03-23T16:05:16;1.93;;;1.00;;
13568;SDS011;6856;51.460;7.158;2024-03-23T16:07:49;1.80;;;1.27;;
13568;SDS011;6856;51.460;7.158;2024-03-23T16:10:22;2.23;;;1.00;;
13568;SDS011;6856;51.460;7.158;2024-03-23T16:12:55;2.00;;;1.40;;
13568;SDS011;6856;51.460;7.158;2024-03-23T16:15:29;2.53;;;1.30;;
13568;SDS011;6856;51.460;7.158;2024-03-23T16:18:03;3.10;;;1.03;;
13568;SDS011;6856;51.460;7.158;2024-03-23T16:20:37;1.93;;;1.00;;
13568;SDS011;6856;51.460;7.158;2024-03-23T16:23:10;2.80;;;1.30;;
13568;SDS011;6856;51.460;7.158;2024-03-23T16:25:45;2.10;;;1.30;;
13568;SDS011;6856;51.460;7.158;2024-03-23T16:28:28;3.27;;;1.17;;
13568;SDS011;6856;51.460;7.158;2024-03-23T16:31:04;2.07;;;1.27;;
13568;SDS011;6856;51.460;7.158;2024-03-23T16:33:39;1.87;;;0.80;;
13568;SDS011;6856;51.460;7.158;2024-03-23T16:36:11;2.23;;;0.80;;
13568;SDS011;6856;51.460;7.158;2024-03-23T16:38:44;3.00;;;1.20;;
13568;SDS011;6856;51.460;7.158;2024-03-23T16:41:16;3.33;;;1.00;;
13568;SDS011;6856;51.460;7.158;2024-03-23T16:43:49;1.73;;;1.00;;